Impacts METAR Board
IDs:

KSAN - San Diego Intl Arpt, CA, US

Updated at: 1000 UTC 30 Oct 2020
Potential Impact None Slight Moderate High
Time 29/22Z 29/23Z 30/00Z 30/01Z 30/02Z 30/03Z 30/04Z 30/05Z 30/06Z 30/07Z 30/08Z 30/09Z 30/10Z
Temp75 75 73 72 69 68 67 65 63 62 61 61 59
Dewpt54 56 57 47 54 60 60 59 58 56 55 55 53
Altim29.96 29.94 29.95 29.96 29.98 30.01 30.01 30.01 30.02 30.01 30.01 30.00 29.99
VIS10 10 10 10 10 10 10 6 6 6 5 4 5
CIG-- 150 250 -- -- -- -- -- -- -- -- -- --
CoverSCTBKNBKNSCTFEWFEWFEWFEWFEWFEWFEWFEWCLR
FltCatVFRVFRVFRVFRVFRVFRVFRVFRVFRVFRMVFRMVFRMVFR
WX--------------BRBRBRHZHZHZ
WDir2903002702900170160000000
WSpd9 8 6 5 0 5 4 0 0 0 0 0 0
WGst-- -- -- -- -- -- -- -- -- -- -- -- --
Raw hourly METARs
KSAN 292151Z 29009KT 10SM FEW020 SCT150 24/12 A2996 RMK AO2 SLP143 FU FEW020 T02390122
KSAN 292251Z 30008KT 10SM FEW020 BKN150 24/13 A2994 RMK AO2 SLP140 FU FEW020 T02390133
KSAN 292351Z 27006KT 10SM SCT150 BKN250 23/14 A2995 RMK AO2 SLP141 T02280139 10256 20228 55007
KSAN 300051Z 29005KT 10SM FEW150 SCT250 22/08 A2996 RMK AO2 SLP146 T02220083
KSAN 300151Z 00000KT 10SM FEW250 21/12 A2998 RMK AO2 SLP153 T02060122
KSAN 300251Z 17005KT 10SM FEW250 20/16 A3001 RMK AO2 SLP160 T02000156 53019
KSAN 300351Z 16004KT 10SM FEW250 19/16 A3001 RMK AO2 SLP162 T01940156
KSAN 300451Z 00000KT 6SM BR FEW250 18/15 A3001 RMK AO2 SLP162 T01830150
KSAN 300551Z 00000KT 6SM BR FEW003 FEW250 17/14 A3002 RMK AO2 SLP165 T01720144 10233 20172 53005
KSAN 300651Z 00000KT 6SM BR FEW003 FEW250 17/13 A3001 RMK AO2 SLP163 T01670133
KSAN 300751Z 00000KT 5SM HZ FEW003 16/13 A3001 RMK AO2 SLP160 T01610128 402560117
KSAN 300851Z 00000KT 4SM HZ FEW003 16/13 A3000 RMK AO2 SLP159 T01610128 56006
KSAN 300951Z 00000KT 5SM HZ CLR 15/12 A2999 RMK AO2 SLP155 T01500117



Page loaded:  10:54 UTC  |   03:54 AM Pacific  |   04:54 AM Mountain  |   05:54 AM Central  |   06:54 AM Eastern

 

ADVISORIES

FORECASTS

FORECASTS

OBSERVATIONS

USER TOOLS

ABOUT US